sensor_id;sensor_type;location;lat;lon;timestamp;temperature;humidity
55777;DHT22;54079;44.540;18.784;2023-09-12T00:02:25;18.00;89.30
55777;DHT22;54079;44.540;18.784;2023-09-12T00:04:51;18.00;90.30
55777;DHT22;54079;44.540;18.784;2023-09-12T00:07:17;18.10;90.60
55777;DHT22;54079;44.540;18.784;2023-09-12T00:09:43;18.00;90.90
55777;DHT22;54079;44.540;18.784;2023-09-12T00:12:09;18.10;91.10
55777;DHT22;54079;44.540;18.784;2023-09-12T00:14:35;17.90;91.70
55777;DHT22;54079;44.540;18.784;2023-09-12T00:17:01;18.00;91.20
55777;DHT22;54079;44.540;18.784;2023-09-12T00:19:27;17.90;91.20
55777;DHT22;54079;44.540;18.784;2023-09-12T00:21:53;17.80;91.50
55777;DHT22;54079;44.540;18.784;2023-09-12T00:24:19;17.80;90.70
55777;DHT22;54079;44.540;18.784;2023-09-12T00:26:45;17.70;90.50
55777;DHT22;54079;44.540;18.784;2023-09-12T00:29:11;17.80;90.80
55777;DHT22;54079;44.540;18.784;2023-09-12T00:31:37;17.80;90.80
55777;DHT22;54079;44.540;18.784;2023-09-12T00:34:03;17.70;91.10
55777;DHT22;54079;44.540;18.784;2023-09-12T00:36:29;17.50;91.90
55777;DHT22;54079;44.540;18.784;2023-09-12T00:38:56;17.40;91.80
55777;DHT22;54079;44.540;18.784;2023-09-12T00:41:22;17.60;91.90
55777;DHT22;54079;44.540;18.784;2023-09-12T00:43:48;17.70;92.30
55777;DHT22;54079;44.540;18.784;2023-09-12T00:46:18;17.70;92.00
55777;DHT22;54079;44.540;18.784;2023-09-12T00:48:45;17.50;92.10
55777;DHT22;54079;44.540;18.784;2023-09-12T00:51:13;17.40;91.60
55777;DHT22;54079;44.540;18.784;2023-09-12T00:53:39;17.50;91.30
55777;DHT22;54079;44.540;18.784;2023-09-12T00:56:06;17.60;91.90
55777;DHT22;54079;44.540;18.784;2023-09-12T00:58:33;17.60;91.80
55777;DHT22;54079;44.540;18.784;2023-09-12T01:00:59;17.60;91.70
55777;DHT22;54079;44.540;18.784;2023-09-12T01:03:25;17.50;91.00
55777;DHT22;54079;44.540;18.784;2023-09-12T01:05:53;17.40;91.60
55777;DHT22;54079;44.540;18.784;2023-09-12T01:08:19;17.40;91.50
55777;DHT22;54079;44.540;18.784;2023-09-12T01:10:48;17.50;92.20
55777;DHT22;54079;44.540;18.784;2023-09-12T01:13:15;17.50;92.00
55777;DHT22;54079;44.540;18.784;2023-09-12T01:15:41;17.50;91.90
55777;DHT22;54079;44.540;18.784;2023-09-12T01:18:07;17.60;92.40
55777;DHT22;54079;44.540;18.784;2023-09-12T01:20:35;17.60;92.30
55777;DHT22;54079;44.540;18.784;2023-09-12T01:23:15;17.50;92.00
55777;DHT22;54079;44.540;18.784;2023-09-12T01:28:40;17.40;92.10
55777;DHT22;54079;44.540;18.784;2023-09-12T01:31:10;17.30;93.50
55777;DHT22;54079;44.540;18.784;2023-09-12T01:33:36;17.40;92.50
55777;DHT22;54079;44.540;18.784;2023-09-12T01:36:02;17.30;92.50
55777;DHT22;54079;44.540;18.784;2023-09-12T01:38:28;17.30;93.00
55777;DHT22;54079;44.540;18.784;2023-09-12T01:40:55;17.30;92.10
55777;DHT22;54079;44.540;18.784;2023-09-12T01:43:24;17.30;92.00
55777;DHT22;54079;44.540;18.784;2023-09-12T01:45:54;17.20;92.00
55777;DHT22;54079;44.540;18.784;2023-09-12T01:48:23;17.20;91.80
55777;DHT22;54079;44.540;18.784;2023-09-12T01:50:50;17.20;93.20
55777;DHT22;54079;44.540;18.784;2023-09-12T01:53:16;17.30;93.50
55777;DHT22;54079;44.540;18.784;2023-09-12T01:55:43;17.30;93.40
55777;DHT22;54079;44.540;18.784;2023-09-12T01:58:12;17.30;92.90
55777;DHT22;54079;44.540;18.784;2023-09-12T02:00:39;17.30;91.90
55777;DHT22;54079;44.540;18.784;2023-09-12T02:03:05;17.30;92.10
55777;DHT22;54079;44.540;18.784;2023-09-12T02:05:31;17.30;92.20
55777;DHT22;54079;44.540;18.784;2023-09-12T02:07:57;17.30;93.20
55777;DHT22;54079;44.540;18.784;2023-09-12T02:10:26;17.30;93.10
55777;DHT22;54079;44.540;18.784;2023-09-12T02:12:52;17.30;93.10
55777;DHT22;54079;44.540;18.784;2023-09-12T02:15:18;17.30;94.00
55777;DHT22;54079;44.540;18.784;2023-09-12T02:17:44;17.20;93.50
55777;DHT22;54079;44.540;18.784;2023-09-12T02:20:10;17.20;93.50
55777;DHT22;54079;44.540;18.784;2023-09-12T02:22:37;17.10;92.90
55777;DHT22;54079;44.540;18.784;2023-09-12T02:25:07;17.10;94.00
55777;DHT22;54079;44.540;18.784;2023-09-12T02:27:34;17.20;94.20
55777;DHT22;54079;44.540;18.784;2023-09-12T02:29:59;17.20;94.00
55777;DHT22;54079;44.540;18.784;2023-09-12T02:32:25;17.30;93.60
55777;DHT22;54079;44.540;18.784;2023-09-12T02:34:51;17.10;92.50
55777;DHT22;54079;44.540;18.784;2023-09-12T02:37:19;17.10;92.70
55777;DHT22;54079;44.540;18.784;2023-09-12T02:39:45;17.10;93.20
55777;DHT22;54079;44.540;18.784;2023-09-12T02:42:11;17.00;93.50
55777;DHT22;54079;44.540;18.784;2023-09-12T02:44:37;16.90;93.60
55777;DHT22;54079;44.540;18.784;2023-09-12T02:47:04;16.90;93.40
55777;DHT22;54079;44.540;18.784;2023-09-12T02:49:30;17.00;93.50
55777;DHT22;54079;44.540;18.784;2023-09-12T02:51:55;16.90;94.10
55777;DHT22;54079;44.540;18.784;2023-09-12T02:54:21;16.80;95.10
55777;DHT22;54079;44.540;18.784;2023-09-12T02:56:47;16.70;94.60
55777;DHT22;54079;44.540;18.784;2023-09-12T02:59:13;16.80;94.90
55777;DHT22;54079;44.540;18.784;2023-09-12T03:01:39;16.80;94.70
55777;DHT22;54079;44.540;18.784;2023-09-12T03:04:05;16.80;94.20
55777;DHT22;54079;44.540;18.784;2023-09-12T03:06:31;16.80;94.70
55777;DHT22;54079;44.540;18.784;2023-09-12T03:08:57;16.90;95.50
55777;DHT22;54079;44.540;18.784;2023-09-12T03:11:26;16.70;95.80
55777;DHT22;54079;44.540;18.784;2023-09-12T03:13:53;16.70;95.50
55777;DHT22;54079;44.540;18.784;2023-09-12T03:16:19;16.70;95.30
55777;DHT22;54079;44.540;18.784;2023-09-12T03:18:45;16.80;95.10
55777;DHT22;54079;44.540;18.784;2023-09-12T03:21:11;16.90;95.50
55777;DHT22;54079;44.540;18.784;2023-09-12T03:23:37;16.90;94.30
55777;DHT22;54079;44.540;18.784;2023-09-12T03:26:04;16.90;93.90
55777;DHT22;54079;44.540;18.784;2023-09-12T03:28:30;16.90;94.30
55777;DHT22;54079;44.540;18.784;2023-09-12T03:31:14;16.90;94.90
55777;DHT22;54079;44.540;18.784;2023-09-12T03:33:41;16.80;94.00
55777;DHT22;54079;44.540;18.784;2023-09-12T03:36:08;16.60;95.10
55777;DHT22;54079;44.540;18.784;2023-09-12T03:38:35;16.60;94.60
55777;DHT22;54079;44.540;18.784;2023-09-12T03:41:01;16.50;94.80
55777;DHT22;54079;44.540;18.784;2023-09-12T03:43:27;16.60;95.30
55777;DHT22;54079;44.540;18.784;2023-09-12T03:45:54;16.70;95.90
55777;DHT22;54079;44.540;18.784;2023-09-12T03:48:20;16.70;95.50
55777;DHT22;54079;44.540;18.784;2023-09-12T03:50:46;16.70;94.60
55777;DHT22;54079;44.540;18.784;2023-09-12T03:53:14;16.70;95.70
55777;DHT22;54079;44.540;18.784;2023-09-12T03:55:40;16.80;95.50
55777;DHT22;54079;44.540;18.784;2023-09-12T03:58:06;16.70;95.50
55777;DHT22;54079;44.540;18.784;2023-09-12T04:00:32;16.40;96.90
55777;DHT22;54079;44.540;18.784;2023-09-12T04:02:58;16.50;95.90
55777;DHT22;54079;44.540;18.784;2023-09-12T04:05:26;16.50;96.20
55777;DHT22;54079;44.540;18.784;2023-09-12T04:07:52;16.50;96.20
55777;DHT22;54079;44.540;18.784;2023-09-12T04:10:22;16.50;96.70
55777;DHT22;54079;44.540;18.784;2023-09-12T04:12:48;16.40;96.80
55777;DHT22;54079;44.540;18.784;2023-09-12T04:15:14;16.50;97.00
55777;DHT22;54079;44.540;18.784;2023-09-12T04:17:40;16.50;96.90
55777;DHT22;54079;44.540;18.784;2023-09-12T04:20:06;16.60;96.30
55777;DHT22;54079;44.540;18.784;2023-09-12T04:22:33;16.60;96.80
55777;DHT22;54079;44.540;18.784;2023-09-12T04:24:59;16.60;96.20
55777;DHT22;54079;44.540;18.784;2023-09-12T04:27:25;16.40;96.80
55777;DHT22;54079;44.540;18.784;2023-09-12T04:29:51;16.20;96.80
55777;DHT22;54079;44.540;18.784;2023-09-12T04:32:17;16.30;96.60
55777;DHT22;54079;44.540;18.784;2023-09-12T04:34:49;16.40;96.20
55777;DHT22;54079;44.540;18.784;2023-09-12T04:37:15;16.50;96.60
55777;DHT22;54079;44.540;18.784;2023-09-12T04:39:41;16.50;96.50
55777;DHT22;54079;44.540;18.784;2023-09-12T04:42:07;16.50;96.00
55777;DHT22;54079;44.540;18.784;2023-09-12T04:58:06;16.60;97.20
55777;DHT22;54079;44.540;18.784;2023-09-12T05:00:33;16.80;97.70
55777;DHT22;54079;44.540;18.784;2023-09-12T05:03:00;16.80;97.90
55777;DHT22;54079;44.540;18.784;2023-09-12T05:05:26;17.00;97.00
55777;DHT22;54079;44.540;18.784;2023-09-12T05:07:52;17.20;96.60
55777;DHT22;54079;44.540;18.784;2023-09-12T05:10:18;17.30;96.30
55777;DHT22;54079;44.540;18.784;2023-09-12T05:12:44;17.30;95.30
55777;DHT22;54079;44.540;18.784;2023-09-12T05:15:10;17.30;95.00
55777;DHT22;54079;44.540;18.784;2023-09-12T05:17:36;17.50;94.60
55777;DHT22;54079;44.540;18.784;2023-09-12T05:20:03;17.70;94.90
55777;DHT22;54079;44.540;18.784;2023-09-12T05:22:32;17.80;94.70
55777;DHT22;54079;44.540;18.784;2023-09-12T05:24:58;17.90;95.10
55777;DHT22;54079;44.540;18.784;2023-09-12T05:27:24;18.00;93.90
55777;DHT22;54079;44.540;18.784;2023-09-12T05:29:49;18.00;93.80
55777;DHT22;54079;44.540;18.784;2023-09-12T05:32:16;18.20;92.60
55777;DHT22;54079;44.540;18.784;2023-09-12T05:34:42;18.20;92.20
55777;DHT22;54079;44.540;18.784;2023-09-12T05:37:08;18.00;94.20
55777;DHT22;54079;44.540;18.784;2023-09-12T05:39:34;17.80;93.30
55777;DHT22;54079;44.540;18.784;2023-09-12T05:41:59;17.80;92.60
55777;DHT22;54079;44.540;18.784;2023-09-12T05:44:25;18.10;92.50
55777;DHT22;54079;44.540;18.784;2023-09-12T05:46:51;18.20;91.40
55777;DHT22;54079;44.540;18.784;2023-09-12T05:49:17;18.50;91.00
55777;DHT22;54079;44.540;18.784;2023-09-12T05:51:43;18.70;90.90
55777;DHT22;54079;44.540;18.784;2023-09-12T05:54:10;18.90;90.50
55777;DHT22;54079;44.540;18.784;2023-09-12T05:56:36;19.00;90.30
55777;DHT22;54079;44.540;18.784;2023-09-12T05:59:02;19.10;90.30
55777;DHT22;54079;44.540;18.784;2023-09-12T06:01:28;19.20;89.70
55777;DHT22;54079;44.540;18.784;2023-09-12T06:03:54;19.10;90.10
55777;DHT22;54079;44.540;18.784;2023-09-12T06:06:20;19.10;88.70
55777;DHT22;54079;44.540;18.784;2023-09-12T06:08:46;19.30;87.00
55777;DHT22;54079;44.540;18.784;2023-09-12T06:11:11;19.60;90.80
55777;DHT22;54079;44.540;18.784;2023-09-12T06:13:37;20.20;85.70
55777;DHT22;54079;44.540;18.784;2023-09-12T06:16:04;20.40;84.00
55777;DHT22;54079;44.540;18.784;2023-09-12T06:18:32;20.50;85.40
55777;DHT22;54079;44.540;18.784;2023-09-12T06:20:59;20.80;83.10
55777;DHT22;54079;44.540;18.784;2023-09-12T06:23:27;21.50;81.40
55777;DHT22;54079;44.540;18.784;2023-09-12T06:25:53;24.70;74.90
55777;DHT22;54079;44.540;18.784;2023-09-12T06:28:29;29.10;69.00
55777;DHT22;54079;44.540;18.784;2023-09-12T06:30:56;32.50;61.50
55777;DHT22;54079;44.540;18.784;2023-09-12T06:33:26;34.60;56.20
55777;DHT22;54079;44.540;18.784;2023-09-12T06:35:52;35.80;52.90
55777;DHT22;54079;44.540;18.784;2023-09-12T06:38:19;37.70;50.00
55777;DHT22;54079;44.540;18.784;2023-09-12T06:40:46;39.20;48.50
55777;DHT22;54079;44.540;18.784;2023-09-12T06:43:13;40.40;46.80
55777;DHT22;54079;44.540;18.784;2023-09-12T06:45:41;41.40;44.30
55777;DHT22;54079;44.540;18.784;2023-09-12T06:48:07;42.50;43.80
55777;DHT22;54079;44.540;18.784;2023-09-12T06:50:33;43.30;42.40
55777;DHT22;54079;44.540;18.784;2023-09-12T06:52:59;44.10;41.80
55777;DHT22;54079;44.540;18.784;2023-09-12T06:55:25;44.90;41.30
55777;DHT22;54079;44.540;18.784;2023-09-12T06:57:51;45.50;40.70
55777;DHT22;54079;44.540;18.784;2023-09-12T07:00:17;46.00;41.10
55777;DHT22;54079;44.540;18.784;2023-09-12T07:02:43;46.40;40.60
55777;DHT22;54079;44.540;18.784;2023-09-12T07:05:09;46.80;39.10
55777;DHT22;54079;44.540;18.784;2023-09-12T07:07:35;47.10;39.60
55777;DHT22;54079;44.540;18.784;2023-09-12T07:10:01;47.50;40.00
55777;DHT22;54079;44.540;18.784;2023-09-12T07:12:27;48.10;39.90
55777;DHT22;54079;44.540;18.784;2023-09-12T07:14:54;48.40;39.90
55777;DHT22;54079;44.540;18.784;2023-09-12T07:17:21;48.80;38.50
55777;DHT22;54079;44.540;18.784;2023-09-12T07:19:48;49.30;38.60
55777;DHT22;54079;44.540;18.784;2023-09-12T07:22:13;50.00;37.10
55777;DHT22;54079;44.540;18.784;2023-09-12T07:24:39;50.80;37.60
55777;DHT22;54079;44.540;18.784;2023-09-12T07:27:05;51.50;36.90
55777;DHT22;54079;44.540;18.784;2023-09-12T07:29:31;52.20;36.30
55777;DHT22;54079;44.540;18.784;2023-09-12T07:31:57;52.00;36.40
55777;DHT22;54079;44.540;18.784;2023-09-12T07:34:24;52.40;36.70
55777;DHT22;54079;44.540;18.784;2023-09-12T07:36:50;52.70;36.10
55777;DHT22;54079;44.540;18.784;2023-09-12T07:39:20;52.80;36.10
55777;DHT22;54079;44.540;18.784;2023-09-12T07:41:46;52.80;35.80
55777;DHT22;54079;44.540;18.784;2023-09-12T07:44:12;52.80;35.60
55777;DHT22;54079;44.540;18.784;2023-09-12T07:46:41;53.10;34.80
55777;DHT22;54079;44.540;18.784;2023-09-12T07:49:07;53.10;34.70
55777;DHT22;54079;44.540;18.784;2023-09-12T07:51:35;53.40;34.50
55777;DHT22;54079;44.540;18.784;2023-09-12T07:54:01;53.10;34.60
55777;DHT22;54079;44.540;18.784;2023-09-12T07:56:27;53.30;34.10
55777;DHT22;54079;44.540;18.784;2023-09-12T07:58:53;53.80;34.10
55777;DHT22;54079;44.540;18.784;2023-09-12T08:01:21;53.90;33.20
55777;DHT22;54079;44.540;18.784;2023-09-12T08:03:47;54.10;33.50
55777;DHT22;54079;44.540;18.784;2023-09-12T08:06:12;54.20;32.80
55777;DHT22;54079;44.540;18.784;2023-09-12T08:08:39;53.40;33.20
55777;DHT22;54079;44.540;18.784;2023-09-12T08:11:05;54.30;34.20
55777;DHT22;54079;44.540;18.784;2023-09-12T08:13:31;55.00;33.20
55777;DHT22;54079;44.540;18.784;2023-09-12T08:15:57;55.50;33.30
55777;DHT22;54079;44.540;18.784;2023-09-12T08:18:27;55.70;32.80
55777;DHT22;54079;44.540;18.784;2023-09-12T08:20:54;54.80;32.60
55777;DHT22;54079;44.540;18.784;2023-09-12T08:23:20;53.50;32.70
55777;DHT22;54079;44.540;18.784;2023-09-12T08:25:46;51.90;33.40
55777;DHT22;54079;44.540;18.784;2023-09-12T08:28:12;53.00;33.10
55777;DHT22;54079;44.540;18.784;2023-09-12T08:30:38;54.20;33.20
55777;DHT22;54079;44.540;18.784;2023-09-12T08:33:04;53.70;32.40
55777;DHT22;54079;44.540;18.784;2023-09-12T08:35:32;50.70;33.20
55777;DHT22;54079;44.540;18.784;2023-09-12T08:37:58;51.70;33.00
55777;DHT22;54079;44.540;18.784;2023-09-12T08:40:24;54.10;33.30
55777;DHT22;54079;44.540;18.784;2023-09-12T08:42:52;53.60;32.00
55777;DHT22;54079;44.540;18.784;2023-09-12T08:45:19;53.20;33.30
55777;DHT22;54079;44.540;18.784;2023-09-12T08:47:49;54.20;32.70
55777;DHT22;54079;44.540;18.784;2023-09-12T08:50:16;54.60;32.50
55777;DHT22;54079;44.540;18.784;2023-09-12T08:52:45;54.40;32.90
55777;DHT22;54079;44.540;18.784;2023-09-12T08:55:11;54.90;32.30
55777;DHT22;54079;44.540;18.784;2023-09-12T08:57:40;55.60;32.40
55777;DHT22;54079;44.540;18.784;2023-09-12T09:00:09;55.80;33.10
55777;DHT22;54079;44.540;18.784;2023-09-12T09:02:42;55.80;32.40
55777;DHT22;54079;44.540;18.784;2023-09-12T09:05:10;56.20;32.70
55777;DHT22;54079;44.540;18.784;2023-09-12T09:07:41;55.10;32.30
55777;DHT22;54079;44.540;18.784;2023-09-12T09:10:13;54.40;32.50
55777;DHT22;54079;44.540;18.784;2023-09-12T09:12:40;55.10;32.90
55777;DHT22;54079;44.540;18.784;2023-09-12T09:15:29;55.80;32.50
55777;DHT22;54079;44.540;18.784;2023-09-12T09:17:56;51.80;33.60
55777;DHT22;54079;44.540;18.784;2023-09-12T09:20:30;47.30;34.70
55777;DHT22;54079;44.540;18.784;2023-09-12T09:23:07;44.40;36.30
55777;DHT22;54079;44.540;18.784;2023-09-12T09:25:40;41.80;36.70
55777;DHT22;54079;44.540;18.784;2023-09-12T09:28:16;40.20;37.40
55777;DHT22;54079;44.540;18.784;2023-09-12T09:30:44;37.90;39.70
55777;DHT22;54079;44.540;18.784;2023-09-12T09:33:11;37.40;40.90
55777;DHT22;54079;44.540;18.784;2023-09-12T09:35:38;37.00;40.60
55777;DHT22;54079;44.540;18.784;2023-09-12T09:38:07;37.10;40.50
55777;DHT22;54079;44.540;18.784;2023-09-12T09:40:34;36.70;40.90
55777;DHT22;54079;44.540;18.784;2023-09-12T09:43:02;36.20;40.40
55777;DHT22;54079;44.540;18.784;2023-09-12T09:45:30;35.80;40.90
55777;DHT22;54079;44.540;18.784;2023-09-12T09:48:22;35.70;41.10
55777;DHT22;54079;44.540;18.784;2023-09-12T09:50:49;35.50;41.60
55777;DHT22;54079;44.540;18.784;2023-09-12T09:53:15;35.20;41.90
55777;DHT22;54079;44.540;18.784;2023-09-12T09:55:41;35.20;42.80
55777;DHT22;54079;44.540;18.784;2023-09-12T09:58:15;35.00;42.40
55777;DHT22;54079;44.540;18.784;2023-09-12T10:00:45;34.90;42.40
55777;DHT22;54079;44.540;18.784;2023-09-12T10:03:14;34.90;40.80
55777;DHT22;54079;44.540;18.784;2023-09-12T10:05:43;34.40;40.50
55777;DHT22;54079;44.540;18.784;2023-09-12T10:08:11;34.50;42.00
55777;DHT22;54079;44.540;18.784;2023-09-12T10:10:42;34.50;42.10
55777;DHT22;54079;44.540;18.784;2023-09-12T10:13:09;34.60;41.50
55777;DHT22;54079;44.540;18.784;2023-09-12T10:15:37;34.70;41.90
55777;DHT22;54079;44.540;18.784;2023-09-12T10:18:08;34.60;41.60
55777;DHT22;54079;44.540;18.784;2023-09-12T10:20:45;34.60;42.00
55777;DHT22;54079;44.540;18.784;2023-09-12T10:23:27;34.60;41.60
55777;DHT22;54079;44.540;18.784;2023-09-12T10:25:57;34.60;41.60
55777;DHT22;54079;44.540;18.784;2023-09-12T10:28:25;34.20;40.70
55777;DHT22;54079;44.540;18.784;2023-09-12T10:30:52;34.20;42.10
55777;DHT22;54079;44.540;18.784;2023-09-12T10:33:18;34.00;43.20
55777;DHT22;54079;44.540;18.784;2023-09-12T10:35:44;34.00;42.60
55777;DHT22;54079;44.540;18.784;2023-09-12T10:38:12;33.90;42.50
55777;DHT22;54079;44.540;18.784;2023-09-12T10:40:40;34.00;43.80
55777;DHT22;54079;44.540;18.784;2023-09-12T10:43:07;34.20;44.20
55777;DHT22;54079;44.540;18.784;2023-09-12T10:45:36;34.30;43.80
55777;DHT22;54079;44.540;18.784;2023-09-12T10:48:05;34.40;43.50
55777;DHT22;54079;44.540;18.784;2023-09-12T10:50:31;34.40;43.00
55777;DHT22;54079;44.540;18.784;2023-09-12T10:53:09;34.20;43.90
55777;DHT22;54079;44.540;18.784;2023-09-12T10:55:35;34.40;44.10
55777;DHT22;54079;44.540;18.784;2023-09-12T10:58:03;34.20;43.10
55777;DHT22;54079;44.540;18.784;2023-09-12T11:00:29;34.00;43.80
55777;DHT22;54079;44.540;18.784;2023-09-12T11:02:59;34.20;43.70
55777;DHT22;54079;44.540;18.784;2023-09-12T11:08:00;34.40;43.20
55777;DHT22;54079;44.540;18.784;2023-09-12T11:10:27;34.50;43.60
55777;DHT22;54079;44.540;18.784;2023-09-12T11:12:55;34.80;43.60
55777;DHT22;54079;44.540;18.784;2023-09-12T11:15:26;34.90;43.30
55777;DHT22;54079;44.540;18.784;2023-09-12T11:18:04;34.90;42.50
55777;DHT22;54079;44.540;18.784;2023-09-12T11:20:52;34.90;43.20
55777;DHT22;54079;44.540;18.784;2023-09-12T11:23:24;34.70;42.00
55777;DHT22;54079;44.540;18.784;2023-09-12T11:26:07;34.70;43.10
55777;DHT22;54079;44.540;18.784;2023-09-12T11:28:36;34.60;43.00
55777;DHT22;54079;44.540;18.784;2023-09-12T11:31:02;34.50;41.90
55777;DHT22;54079;44.540;18.784;2023-09-12T11:33:28;34.50;42.70
55777;DHT22;54079;44.540;18.784;2023-09-12T11:35:55;34.40;43.30
55777;DHT22;54079;44.540;18.784;2023-09-12T11:38:28;34.20;43.50
55777;DHT22;54079;44.540;18.784;2023-09-12T11:40:55;33.90;43.70
55777;DHT22;54079;44.540;18.784;2023-09-12T11:43:26;34.00;43.30
55777;DHT22;54079;44.540;18.784;2023-09-12T11:45:54;34.00;42.70
55777;DHT22;54079;44.540;18.784;2023-09-12T11:48:21;33.90;43.00
55777;DHT22;54079;44.540;18.784;2023-09-12T11:50:54;34.00;42.60
55777;DHT22;54079;44.540;18.784;2023-09-12T11:53:23;34.20;42.30
55777;DHT22;54079;44.540;18.784;2023-09-12T11:55:58;34.20;42.10
55777;DHT22;54079;44.540;18.784;2023-09-12T11:58:25;34.20;42.20
55777;DHT22;54079;44.540;18.784;2023-09-12T12:00:54;34.10;41.70
55777;DHT22;54079;44.540;18.784;2023-09-12T12:03:22;33.90;40.90
55777;DHT22;54079;44.540;18.784;2023-09-12T12:05:49;33.90;41.90
55777;DHT22;54079;44.540;18.784;2023-09-12T12:08:17;33.80;42.30
55777;DHT22;54079;44.540;18.784;2023-09-12T12:10:43;33.90;42.20
55777;DHT22;54079;44.540;18.784;2023-09-12T12:13:17;34.10;43.10
55777;DHT22;54079;44.540;18.784;2023-09-12T12:15:43;34.20;41.80
55777;DHT22;54079;44.540;18.784;2023-09-12T12:18:08;34.20;41.50
55777;DHT22;54079;44.540;18.784;2023-09-12T12:20:34;34.30;41.30
55777;DHT22;54079;44.540;18.784;2023-09-12T12:23:01;34.20;41.00
55777;DHT22;54079;44.540;18.784;2023-09-12T12:25:31;34.20;40.90
55777;DHT22;54079;44.540;18.784;2023-09-12T12:27:57;34.20;40.70
55777;DHT22;54079;44.540;18.784;2023-09-12T12:30:23;34.20;42.40
55777;DHT22;54079;44.540;18.784;2023-09-12T12:32:49;34.20;42.40
55777;DHT22;54079;44.540;18.784;2023-09-12T12:35:22;34.20;40.50
55777;DHT22;54079;44.540;18.784;2023-09-12T12:37:50;34.00;40.10
55777;DHT22;54079;44.540;18.784;2023-09-12T12:40:16;33.90;41.60
55777;DHT22;54079;44.540;18.784;2023-09-12T12:42:43;33.30;40.40
55777;DHT22;54079;44.540;18.784;2023-09-12T12:45:14;33.40;41.00
55777;DHT22;54079;44.540;18.784;2023-09-12T12:47:40;33.60;42.00
55777;DHT22;54079;44.540;18.784;2023-09-12T12:50:14;33.40;42.10
55777;DHT22;54079;44.540;18.784;2023-09-12T12:52:41;33.50;41.70
55777;DHT22;54079;44.540;18.784;2023-09-12T12:55:10;33.50;41.70
55777;DHT22;54079;44.540;18.784;2023-09-12T12:57:40;33.50;40.60
55777;DHT22;54079;44.540;18.784;2023-09-12T13:00:11;33.30;39.10
55777;DHT22;54079;44.540;18.784;2023-09-12T13:02:38;33.10;39.80
55777;DHT22;54079;44.540;18.784;2023-09-12T13:05:06;33.20;40.80
55777;DHT22;54079;44.540;18.784;2023-09-12T13:07:36;33.10;39.90
55777;DHT22;54079;44.540;18.784;2023-09-12T13:10:02;33.20;40.90
55777;DHT22;54079;44.540;18.784;2023-09-12T13:12:30;33.20;41.10
55777;DHT22;54079;44.540;18.784;2023-09-12T13:14:56;33.00;41.80
55777;DHT22;54079;44.540;18.784;2023-09-12T13:17:23;33.30;41.70
55777;DHT22;54079;44.540;18.784;2023-09-12T13:19:49;33.40;42.60
55777;DHT22;54079;44.540;18.784;2023-09-12T13:22:15;33.20;41.60
55777;DHT22;54079;44.540;18.784;2023-09-12T13:24:41;33.40;42.20
55777;DHT22;54079;44.540;18.784;2023-09-12T13:27:07;33.50;42.40
55777;DHT22;54079;44.540;18.784;2023-09-12T13:29:33;33.60;42.30
55777;DHT22;54079;44.540;18.784;2023-09-12T13:31:58;33.50;44.40
55777;DHT22;54079;44.540;18.784;2023-09-12T13:34:24;33.20;45.70
55777;DHT22;54079;44.540;18.784;2023-09-12T13:36:50;33.00;45.70
55777;DHT22;54079;44.540;18.784;2023-09-12T13:39:16;33.00;46.50
55777;DHT22;54079;44.540;18.784;2023-09-12T13:41:43;33.00;46.10
55777;DHT22;54079;44.540;18.784;2023-09-12T13:44:10;33.00;46.90
55777;DHT22;54079;44.540;18.784;2023-09-12T13:46:36;33.00;46.00
55777;DHT22;54079;44.540;18.784;2023-09-12T13:49:02;32.90;46.30
55777;DHT22;54079;44.540;18.784;2023-09-12T13:51:29;32.70;46.00
55777;DHT22;54079;44.540;18.784;2023-09-12T13:53:55;32.80;46.70
55777;DHT22;54079;44.540;18.784;2023-09-12T13:56:21;32.90;46.40
55777;DHT22;54079;44.540;18.784;2023-09-12T13:58:47;33.20;47.10
55777;DHT22;54079;44.540;18.784;2023-09-12T14:01:13;33.10;47.00
55777;DHT22;54079;44.540;18.784;2023-09-12T14:03:39;32.90;47.10
55777;DHT22;54079;44.540;18.784;2023-09-12T14:06:05;32.70;47.30
55777;DHT22;54079;44.540;18.784;2023-09-12T14:08:31;32.70;47.40
55777;DHT22;54079;44.540;18.784;2023-09-12T14:10:57;32.70;46.80
55777;DHT22;54079;44.540;18.784;2023-09-12T14:13:23;32.70;47.70
55777;DHT22;54079;44.540;18.784;2023-09-12T14:15:49;32.70;48.80
55777;DHT22;54079;44.540;18.784;2023-09-12T14:18:17;32.70;48.00
55777;DHT22;54079;44.540;18.784;2023-09-12T14:20:43;32.80;48.30
55777;DHT22;54079;44.540;18.784;2023-09-12T14:23:09;32.80;48.60
55777;DHT22;54079;44.540;18.784;2023-09-12T14:25:35;32.60;48.20
55777;DHT22;54079;44.540;18.784;2023-09-12T14:28:01;32.70;48.70
55777;DHT22;54079;44.540;18.784;2023-09-12T14:30:30;32.70;48.70
55777;DHT22;54079;44.540;18.784;2023-09-12T14:33:01;32.50;48.80
55777;DHT22;54079;44.540;18.784;2023-09-12T14:35:28;32.50;49.10
55777;DHT22;54079;44.540;18.784;2023-09-12T14:37:54;32.50;49.50
55777;DHT22;54079;44.540;18.784;2023-09-12T14:40:20;32.40;49.50
55777;DHT22;54079;44.540;18.784;2023-09-12T14:42:46;32.30;49.50
55777;DHT22;54079;44.540;18.784;2023-09-12T14:45:13;32.30;50.00
55777;DHT22;54079;44.540;18.784;2023-09-12T14:47:40;32.50;49.70
55777;DHT22;54079;44.540;18.784;2023-09-12T14:50:06;32.30;49.20
55777;DHT22;54079;44.540;18.784;2023-09-12T14:52:32;32.20;50.10
55777;DHT22;54079;44.540;18.784;2023-09-12T14:54:59;32.00;49.80
55777;DHT22;54079;44.540;18.784;2023-09-12T14:57:26;32.00;50.30
55777;DHT22;54079;44.540;18.784;2023-09-12T14:59:53;32.00;50.90
55777;DHT22;54079;44.540;18.784;2023-09-12T15:02:21;32.00;50.10
55777;DHT22;54079;44.540;18.784;2023-09-12T15:04:47;32.00;50.90
55777;DHT22;54079;44.540;18.784;2023-09-12T15:07:12;32.00;50.30
55777;DHT22;54079;44.540;18.784;2023-09-12T15:09:38;32.00;51.10
55777;DHT22;54079;44.540;18.784;2023-09-12T15:12:05;32.10;50.80
55777;DHT22;54079;44.540;18.784;2023-09-12T15:14:31;31.80;50.60
55777;DHT22;54079;44.540;18.784;2023-09-12T15:16:57;32.00;51.10
55777;DHT22;54079;44.540;18.784;2023-09-12T15:19:24;32.00;51.20
55777;DHT22;54079;44.540;18.784;2023-09-12T15:21:50;31.90;51.10
55777;DHT22;54079;44.540;18.784;2023-09-12T15:24:16;31.80;50.50
55777;DHT22;54079;44.540;18.784;2023-09-12T15:26:42;31.80;50.90
55777;DHT22;54079;44.540;18.784;2023-09-12T15:29:08;31.80;51.30
55777;DHT22;54079;44.540;18.784;2023-09-12T15:31:34;31.90;51.10
55777;DHT22;54079;44.540;18.784;2023-09-12T15:34:00;32.00;51.40
55777;DHT22;54079;44.540;18.784;2023-09-12T15:36:26;31.60;51.20